Edenbridge, United Kingdom
Current Conditions -  °F | °C
As of 11:20 AM on Wednesday 26 Nov 2014 (Local Time) from EGKB Reporting Station
Moderate Fog Moderate Fog  
Wind Chill:   Ceiling: Unl
Heat Index:   Visibility: 0.18mi
Dew Point:   Wind: 2mph
Humidity: 93%   Direction: 40°NE
Pressure: 29.85"   Gusts: NA
Location:  51.19°N, 0.07°E
Report Text: EGKB 261120Z 04002KT 0300 R21/0250 FG VV/// 08/07 Q1011
Loading
Personal Weather Stations






























Interactive Weather Map New forecast layout! Learn more

10-Day Weather Forecast

Advertisements
Track Severe Weather on mobile